Time;durP1;ratioP1;P1;durP2;ratioP2;P2;SDS_P1;SDS_P2;PMS_P1;PMS_P2;Temp;Humidity;BMP_temperature;BMP_pressure;BME280_temperature;BME280_humidity;BME280_pressure;Samples;Min_cycle;Max_cycle;Signal;HPM_P1;HPM_P2
2022/03/01 00:01:45;;;;;;;19.73;11.02;;;2.70;99.90;;;;;;5002331;28;20582;-61
2022/03/01 00:04:10;;;;;;;20.95;11.55;;;2.60;99.90;;;;;;5010521;28;20038;-62
2022/03/01 00:06:36;;;;;;;21.55;12.10;;;2.60;99.90;;;;;;4994785;28;20051;-61
2022/03/01 00:09:02;;;;;;;20.25;11.93;;;2.60;99.90;;;;;;4983537;28;20443;-62
2022/03/01 00:11:28;;;;;;;21.92;12.20;;;2.60;99.90;;;;;;5001965;28;20116;-61
2022/03/01 00:13:54;;;;;;;23.10;11.65;;;2.60;99.90;;;;;;4998209;28;20478;-61
2022/03/01 00:16:20;;;;;;;24.17;12.30;;;2.50;99.90;;;;;;4997900;28;20038;-61
2022/03/01 00:18:46;;;;;;;20.77;11.48;;;2.50;99.90;;;;;;5001890;28;20104;-62
2022/03/01 00:21:12;;;;;;;22.40;12.38;;;2.50;99.90;;;;;;5010403;28;20073;-62
2022/03/01 00:23:37;;;;;;;24.48;12.82;;;2.50;99.90;;;;;;4985283;28;20137;-62
2022/03/01 00:26:03;;;;;;;22.25;12.05;;;2.40;99.90;;;;;;4995784;28;20118;-62
2022/03/01 00:28:29;;;;;;;22.88;12.07;;;2.50;99.90;;;;;;5006081;28;20045;-62
2022/03/01 00:30:55;;;;;;;22.08;12.75;;;2.40;99.90;;;;;;4992824;28;20478;-62
2022/03/01 00:33:21;;;;;;;21.15;11.98;;;2.40;99.90;;;;;;4993774;28;20084;-62
2022/03/01 00:35:46;;;;;;;22.52;12.95;;;2.30;99.90;;;;;;5001799;28;20046;-61
2022/03/01 00:38:12;;;;;;;21.38;12.48;;;2.30;99.90;;;;;;5010001;28;20125;-61
2022/03/01 00:40:38;;;;;;;23.40;12.02;;;2.30;99.90;;;;;;4992114;28;20034;-61
2022/03/01 00:43:03;;;;;;;23.98;12.32;;;2.30;99.90;;;;;;5001414;28;20374;-61
2022/03/01 00:45:29;;;;;;;24.73;12.90;;;2.20;99.90;;;;;;5009808;28;20117;-61
2022/03/01 00:47:54;;;;;;;21.73;11.82;;;2.20;99.90;;;;;;4989627;28;20046;-61
2022/03/01 00:50:20;;;;;;;23.05;12.82;;;2.10;99.90;;;;;;4998753;28;20034;-62
2022/03/01 00:52:46;;;;;;;24.88;11.77;;;2.00;99.90;;;;;;5007626;28;20084;-61
2022/03/01 00:55:11;;;;;;;22.77;11.85;;;1.80;99.90;;;;;;5009803;28;20050;-61
2022/03/01 00:57:37;;;;;;;21.45;11.35;;;1.50;99.90;;;;;;4986943;28;20126;-62
2022/03/01 01:00:05;;;;;;;27.25;12.70;;;1.30;99.90;;;;;;4998721;28;20405;-61
2022/03/01 01:02:31;;;;;;;22.60;12.63;;;1.20;99.90;;;;;;5005354;28;20033;-61
2022/03/01 01:04:56;;;;;;;22.33;11.70;;;1.10;99.90;;;;;;4992575;28;20080;-62
2022/03/01 01:07:22;;;;;;;24.38;12.27;;;1.00;99.90;;;;;;4997997;28;20129;-62
2022/03/01 01:09:48;;;;;;;19.65;11.55;;;0.90;99.90;;;;;;5007469;28;20463;-62
2022/03/01 01:12:13;;;;;;;23.73;13.32;;;0.80;99.90;;;;;;5000565;28;20117;-61
2022/03/01 01:14:39;;;;;;;23.20;13.63;;;0.80;99.90;;;;;;5003926;28;20038;-61
2022/03/01 01:17:04;;;;;;;23.15;12.60;;;0.90;99.90;;;;;;5001874;28;20460;-62
2022/03/01 01:19:30;;;;;;;25.85;13.48;;;0.90;99.90;;;;;;4996286;28;20046;-60
2022/03/01 01:24:39;;;;;;;24.05;13.32;;;0.90;99.90;;;;;;4997678;28;20089;-61
2022/03/01 01:27:05;;;;;;;22.15;12.77;;;0.90;99.90;;;;;;5008418;28;20453;-62
2022/03/01 01:29:31;;;;;;;22.70;12.75;;;0.90;99.90;;;;;;4987730;28;20088;-61
2022/03/01 01:31:56;;;;;;;24.65;13.50;;;0.80;99.90;;;;;;5000295;28;20044;-61
2022/03/01 01:34:22;;;;;;;27.02;13.90;;;0.80;99.90;;;;;;5008918;28;20448;-61
2022/03/01 01:36:47;;;;;;;25.52;13.25;;;0.70;99.90;;;;;;4994884;28;20478;-62
2022/03/01 01:39:13;;;;;;;23.15;13.85;;;0.80;99.90;;;;;;4991127;28;20038;-61
2022/03/01 01:41:38;;;;;;;23.85;12.85;;;1.00;99.90;;;;;;5000773;28;20037;-61
2022/03/01 01:44:06;;;;;;;25.23;14.18;;;1.10;99.90;;;;;;5008815;28;20113;-61
2022/03/01 01:46:31;;;;;;;25.67;14.00;;;1.30;99.90;;;;;;4994738;28;20057;-61
2022/03/01 01:48:57;;;;;;;25.77;13.73;;;1.30;99.90;;;;;;5003467;28;20585;-62
2022/03/01 01:51:24;;;;;;;27.80;14.82;;;1.50;99.90;;;;;;5003193;28;20049;-61
2022/03/01 01:53:50;;;;;;;24.48;13.32;;;1.50;99.90;;;;;;4999086;28;20030;-62
2022/03/01 01:56:16;;;;;;;27.52;13.90;;;1.60;99.90;;;;;;4992342;28;20096;-61
2022/03/01 01:58:42;;;;;;;25.13;12.85;;;1.70;99.90;;;;;;4996906;28;20034;-61
2022/03/01 02:01:08;;;;;;;24.00;13.48;;;1.70;99.90;;;;;;4984926;28;20170;-61
2022/03/01 02:03:35;;;;;;;32.00;13.77;;;1.60;99.90;;;;;;4976567;28;20042;-62
2022/03/01 02:06:01;;;;;;;27.17;13.15;;;1.60;99.90;;;;;;5000039;28;20764;-62
2022/03/01 02:08:31;;;;;;;24.35;13.95;;;1.60;99.90;;;;;;5008683;28;20412;-61
2022/03/01 02:10:57;;;;;;;26.17;12.88;;;1.50;99.90;;;;;;4988209;28;20125;-62
2022/03/01 02:13:23;;;;;;;26.80;13.48;;;1.30;99.90;;;;;;4999731;28;20439;-61
2022/03/01 02:15:49;;;;;;;24.33;13.75;;;1.30;99.90;;;;;;4998737;28;20046;-60
2022/03/01 02:18:15;;;;;;;25.73;14.40;;;1.30;99.90;;;;;;4999987;28;20111;-62
2022/03/01 02:20:41;;;;;;;25.38;13.57;;;1.40;99.90;;;;;;4980177;28;20125;-62
2022/03/01 02:23:07;;;;;;;24.13;14.02;;;1.50;99.90;;;;;;4999699;28;20168;-61
2022/03/01 02:25:32;;;;;;;25.90;13.95;;;1.60;99.90;;;;;;5007071;28;20034;-62
2022/03/01 02:27:58;;;;;;;28.30;13.93;;;1.60;99.90;;;;;;4986562;28;20657;-62
2022/03/01 02:30:23;;;;;;;25.00;13.32;;;1.60;99.90;;;;;;4999131;28;20570;-61
2022/03/01 02:32:49;;;;;;;25.35;13.57;;;1.40;99.90;;;;;;5006098;28;20550;-61
2022/03/01 02:35:15;;;;;;;26.10;13.77;;;1.40;99.90;;;;;;4996726;28;20513;-62
2022/03/01 02:37:41;;;;;;;25.48;14.43;;;1.40;99.90;;;;;;4998586;28;20042;-62
2022/03/01 02:40:08;;;;;;;26.10;13.65;;;1.40;99.90;;;;;;5000803;28;20038;-62
2022/03/01 02:42:33;;;;;;;25.20;14.20;;;1.40;99.90;;;;;;5008240;28;20116;-61
2022/03/01 02:44:59;;;;;;;24.52;13.82;;;1.40;99.90;;;;;;4987303;28;20130;-62
2022/03/01 02:47:25;;;;;;;25.23;13.43;;;1.40;99.90;;;;;;4991470;28;20034;-62
2022/03/01 02:49:51;;;;;;;24.50;14.20;;;1.40;99.90;;;;;;5006391;28;20045;-62
2022/03/01 02:52:16;;;;;;;28.42;13.73;;;1.40;99.90;;;;;;5008182;28;20711;-62
2022/03/01 02:54:42;;;;;;;25.95;14.15;;;1.50;99.90;;;;;;4987001;28;20448;-61
2022/03/01 02:57:07;;;;;;;24.90;14.15;;;1.40;99.90;;;;;;4985601;28;20146;-61
2022/03/01 02:59:33;;;;;;;27.75;13.93;;;1.40;99.90;;;;;;4990936;28;20228;-62
2022/03/01 03:01:59;;;;;;;26.25;14.43;;;1.40;99.90;;;;;;4990545;28;20034;-62
2022/03/01 03:04:25;;;;;;;26.70;14.20;;;1.40;99.90;;;;;;4991136;28;20049;-62
2022/03/01 03:06:50;;;;;;;28.73;15.00;;;1.30;99.90;;;;;;5006521;28;20045;-62
2022/03/01 03:09:16;;;;;;;30.70;14.82;;;1.30;99.90;;;;;;4991650;28;20499;-62
2022/03/01 03:11:42;;;;;;;26.17;14.35;;;1.20;99.90;;;;;;4997159;28;20041;-62
2022/03/01 03:14:08;;;;;;;25.35;13.85;;;1.20;99.90;;;;;;5007502;28;20034;-62
2022/03/01 03:16:33;;;;;;;26.30;14.05;;;1.10;99.90;;;;;;5001735;28;20117;-62
2022/03/01 03:18:59;;;;;;;29.55;15.32;;;1.10;99.90;;;;;;4991829;28;20079;-62
2022/03/01 03:21:25;;;;;;;27.60;14.95;;;1.10;99.90;;;;;;4999580;28;20037;-61
2022/03/01 03:23:50;;;;;;;28.42;14.18;;;1.10;99.90;;;;;;5007388;28;20049;-61
2022/03/01 03:26:16;;;;;;;27.30;15.25;;;1.10;99.90;;;;;;4991578;28;20041;-62
2022/03/01 03:28:42;;;;;;;28.98;14.65;;;1.10;99.90;;;;;;4996488;28;20044;-62
2022/03/01 03:31:07;;;;;;;29.63;15.10;;;1.10;99.90;;;;;;5007555;28;20034;-62
2022/03/01 03:33:33;;;;;;;25.50;13.85;;;1.10;99.90;;;;;;4994869;28;20105;-61
2022/03/01 03:35:58;;;;;;;27.00;14.45;;;1.10;99.90;;;;;;4985678;28;20737;-61
2022/03/01 03:38:25;;;;;;;27.02;15.05;;;1.20;99.90;;;;;;4999547;28;20065;-61
2022/03/01 03:40:52;;;;;;;29.20;14.18;;;1.30;99.90;;;;;;5000591;28;20093;-61
2022/03/01 03:43:18;;;;;;;28.65;15.23;;;1.30;99.90;;;;;;4984734;28;20035;-62
2022/03/01 03:45:44;;;;;;;26.73;14.13;;;1.30;99.90;;;;;;4993446;28;20049;-61
2022/03/01 03:48:10;;;;;;;27.83;14.65;;;1.20;99.90;;;;;;4987943;28;20038;-62
2022/03/01 03:50:35;;;;;;;27.30;14.40;;;1.30;99.90;;;;;;4981944;28;20042;-60
2022/03/01 03:53:01;;;;;;;27.77;15.07;;;1.30;99.90;;;;;;4994734;28;20519;-62
2022/03/01 03:55:27;;;;;;;25.85;14.05;;;1.40;99.90;;;;;;4999061;28;20050;-62
2022/03/01 03:57:52;;;;;;;28.98;15.90;;;1.30;99.90;;;;;;4990955;28;20125;-61
2022/03/01 04:00:18;;;;;;;27.88;14.38;;;1.30;99.90;;;;;;4996831;28;20038;-61
2022/03/01 04:02:46;;;;;;;27.08;14.10;;;1.20;99.90;;;;;;4998807;28;20037;-62
2022/03/01 04:05:12;;;;;;;27.77;13.85;;;1.10;99.90;;;;;;4988547;28;23997;-61
2022/03/01 04:07:40;;;;;;;23.15;12.43;;;0.90;99.90;;;;;;4984646;28;20042;-62
2022/03/01 04:10:06;;;;;;;21.13;11.80;;;0.70;99.90;;;;;;4993852;28;20142;-61
2022/03/01 04:12:31;;;;;;;23.02;13.15;;;0.60;99.90;;;;;;5006583;28;20065;-61
2022/03/01 04:14:57;;;;;;;20.48;11.50;;;0.50;99.90;;;;;;5010240;28;20076;-61
2022/03/01 04:17:23;;;;;;;19.42;11.30;;;0.40;99.90;;;;;;4993462;28;20045;-61
2022/03/01 04:19:48;;;;;;;26.73;13.30;;;0.30;99.90;;;;;;4991428;28;20045;-61
2022/03/01 04:22:14;;;;;;;26.10;13.70;;;0.30;99.90;;;;;;4994117;28;20551;-61
2022/03/01 04:24:39;;;;;;;23.30;12.73;;;0.30;99.90;;;;;;4978581;28;20042;-61
2022/03/01 04:27:05;;;;;;;19.70;11.90;;;0.50;99.90;;;;;;4996128;28;20049;-61
2022/03/01 04:29:31;;;;;;;25.52;12.70;;;0.40;99.90;;;;;;4996261;28;20593;-61
2022/03/01 04:31:56;;;;;;;23.08;13.10;;;0.30;99.90;;;;;;4997345;28;20100;-62
2022/03/01 04:34:22;;;;;;;24.38;13.30;;;0.20;99.90;;;;;;5001788;28;20034;-61
2022/03/01 04:36:48;;;;;;;26.65;13.52;;;0.10;99.90;;;;;;5010437;28;20140;-62
2022/03/01 04:39:13;;;;;;;25.60;13.50;;;0.10;99.90;;;;;;4990965;28;20493;-62
2022/03/01 04:41:39;;;;;;;28.00;14.52;;;0.10;99.90;;;;;;4988410;28;20484;-62
2022/03/01 04:44:07;;;;;;;29.35;15.60;;;0.20;99.90;;;;;;4987212;28;20039;-61
2022/03/01 04:46:33;;;;;;;26.35;14.95;;;0.30;99.90;;;;;;4983758;28;20121;-61
2022/03/01 04:48:59;;;;;;;25.98;14.90;;;0.40;99.90;;;;;;5002123;28;20193;-61
2022/03/01 04:51:24;;;;;;;27.75;14.93;;;0.40;99.90;;;;;;4995110;28;20065;-61
2022/03/01 04:53:51;;;;;;;26.20;13.40;;;0.50;99.90;;;;;;4986739;28;20069;-61
2022/03/01 04:56:16;;;;;;;27.17;14.32;;;0.40;99.90;;;;;;4989145;28;20114;-61
2022/03/01 04:58:43;;;;;;;25.50;14.73;;;0.30;99.90;;;;;;4988305;28;20170;-61
2022/03/01 05:01:08;;;;;;;25.20;14.18;;;0.30;99.90;;;;;;5001670;28;20492;-61
2022/03/01 05:03:34;;;;;;;29.20;14.98;;;0.10;99.90;;;;;;5009589;28;20038;-62
2022/03/01 05:05:59;;;;;;;24.90;13.88;;;0.10;99.90;;;;;;4990833;28;20640;-61
2022/03/01 05:08:30;;;;;;;29.60;15.25;;;0.10;99.90;;;;;;5000027;28;20636;-61
2022/03/01 05:10:59;;;;;;;31.77;15.73;;;0.20;99.90;;;;;;5008987;28;20069;-61
2022/03/01 05:13:25;;;;;;;27.58;15.48;;;0.30;99.90;;;;;;4999235;28;20042;-61
2022/03/01 05:15:52;;;;;;;27.27;15.68;;;0.40;99.90;;;;;;4990533;28;20072;-61
2022/03/01 05:18:17;;;;;;;38.10;16.13;;;0.50;99.90;;;;;;5001123;28;20088;-61
2022/03/01 05:20:43;;;;;;;39.00;16.98;;;0.50;99.90;;;;;;5009674;28;20041;-61
2022/03/01 05:23:09;;;;;;;36.15;16.05;;;0.60;99.90;;;;;;4985980;28;20045;-62
2022/03/01 05:25:34;;;;;;;29.90;16.52;;;0.70;99.90;;;;;;4988176;28;20057;-62
2022/03/01 05:28:00;;;;;;;33.88;16.80;;;0.80;99.90;;;;;;5000502;28;20048;-61
2022/03/01 05:30:26;;;;;;;29.92;15.38;;;0.80;99.90;;;;;;4988369;28;20046;-61
2022/03/01 05:32:52;;;;;;;31.88;15.43;;;0.80;99.90;;;;;;4991524;28;20046;-61
2022/03/01 05:35:24;;;;;;;42.08;16.10;;;0.80;99.90;;;;;;5000530;28;20055;-61
2022/03/01 05:37:52;;;;;;;30.80;15.57;;;0.80;99.90;;;;;;5004281;28;20034;-62
2022/03/01 05:40:19;;;;;;;29.45;15.60;;;0.90;99.90;;;;;;4991100;28;20102;-61
2022/03/01 05:42:45;;;;;;;32.60;16.30;;;1.00;99.90;;;;;;4996102;28;20550;-61
2022/03/01 05:45:12;;;;;;;30.88;15.70;;;1.10;99.90;;;;;;5009135;28;20042;-61
2022/03/01 05:47:40;;;;;;;28.95;15.52;;;1.20;99.90;;;;;;4981892;28;20069;-61
2022/03/01 05:50:06;;;;;;;30.95;15.98;;;1.40;99.90;;;;;;5002373;28;20034;-61
2022/03/01 05:52:32;;;;;;;27.80;15.43;;;1.40;99.90;;;;;;5003409;28;20095;-61
2022/03/01 05:54:58;;;;;;;29.40;15.38;;;1.40;99.90;;;;;;5003380;28;20396;-61
2022/03/01 05:57:27;;;;;;;31.25;15.88;;;1.50;99.90;;;;;;4981119;28;20042;-61
2022/03/01 05:59:53;;;;;;;28.73;14.63;;;1.50;99.90;;;;;;4990169;28;20129;-61
2022/03/01 06:02:19;;;;;;;30.08;15.32;;;1.50;99.90;;;;;;5002866;28;20034;-62
2022/03/01 06:04:45;;;;;;;29.42;15.82;;;1.50;99.90;;;;;;4989697;28;20046;-61
2022/03/01 06:07:10;;;;;;;33.20;15.48;;;1.50;99.90;;;;;;4987924;28;20103;-60
2022/03/01 06:09:36;;;;;;;28.80;14.25;;;1.50;99.90;;;;;;5002119;28;20622;-61
2022/03/01 06:12:02;;;;;;;27.05;15.43;;;1.40;99.90;;;;;;4991508;28;20050;-61
2022/03/01 06:14:27;;;;;;;30.77;16.00;;;1.40;99.90;;;;;;4991395;28;20037;-61
2022/03/01 06:16:53;;;;;;;26.40;15.18;;;1.40;99.90;;;;;;4997739;28;20046;-61
2022/03/01 06:19:18;;;;;;;31.00;15.02;;;1.40;99.90;;;;;;5005792;28;20546;-61
2022/03/01 06:21:44;;;;;;;28.10;15.25;;;1.40;99.90;;;;;;4976193;28;20547;-61
2022/03/01 06:24:11;;;;;;;32.92;16.58;;;1.30;99.90;;;;;;4986730;28;20090;-61
2022/03/01 06:26:36;;;;;;;31.65;15.90;;;1.30;99.90;;;;;;5000955;28;20060;-62
2022/03/01 06:29:04;;;;;;;33.63;16.92;;;1.40;99.90;;;;;;4984831;28;20046;-62
2022/03/01 06:31:30;;;;;;;31.67;16.80;;;1.30;99.90;;;;;;4986409;28;20609;-62
2022/03/01 06:33:56;;;;;;;31.40;16.85;;;1.30;99.90;;;;;;4997063;28;20623;-61
2022/03/01 06:36:25;;;;;;;30.27;15.23;;;1.30;99.90;;;;;;5002238;28;20084;-61
2022/03/01 06:38:51;;;;;;;32.03;16.63;;;1.20;99.90;;;;;;4983667;28;20050;-61
2022/03/01 06:41:17;;;;;;;32.78;16.88;;;1.20;99.90;;;;;;4997682;28;20041;-60
2022/03/01 06:43:43;;;;;;;30.33;15.90;;;1.20;99.90;;;;;;5005678;28;20095;-61
2022/03/01 06:46:09;;;;;;;37.60;16.65;;;1.20;99.90;;;;;;4990709;28;20114;-61
2022/03/01 06:48:34;;;;;;;30.92;15.80;;;1.20;99.90;;;;;;4994472;28;20069;-61
2022/03/01 06:51:01;;;;;;;28.80;15.57;;;1.20;99.90;;;;;;4996853;28;20124;-61
2022/03/01 06:53:26;;;;;;;27.15;14.55;;;1.30;99.90;;;;;;4993731;28;20110;-60
2022/03/01 06:55:52;;;;;;;31.08;15.38;;;1.30;99.90;;;;;;4978906;28;20133;-61
2022/03/01 06:58:18;;;;;;;28.00;15.50;;;1.30;99.90;;;;;;4994370;28;20077;-61
2022/03/01 07:00:44;;;;;;;26.73;15.18;;;1.30;99.90;;;;;;4986912;28;20031;-61
2022/03/01 07:03:10;;;;;;;28.15;14.38;;;1.20;99.90;;;;;;4984578;28;20508;-61
2022/03/01 07:05:36;;;;;;;30.80;16.08;;;1.30;99.90;;;;;;4987865;28;20030;-62
2022/03/01 07:08:02;;;;;;;26.70;14.73;;;1.30;99.90;;;;;;4995840;28;20035;-61
2022/03/01 07:10:28;;;;;;;27.33;14.98;;;1.40;99.90;;;;;;4979854;28;20450;-61
2022/03/01 07:12:53;;;;;;;32.83;16.45;;;1.40;99.90;;;;;;4990071;28;20122;-61
2022/03/01 07:15:19;;;;;;;30.88;16.00;;;1.50;99.90;;;;;;4999641;28;20451;-60
2022/03/01 07:17:45;;;;;;;32.10;16.25;;;1.50;99.90;;;;;;5007873;28;20392;-62
2022/03/01 07:20:11;;;;;;;27.42;14.98;;;1.50;99.90;;;;;;4984472;28;20650;-61
2022/03/01 07:22:37;;;;;;;32.47;16.90;;;1.50;99.90;;;;;;4988556;28;20588;-61
2022/03/01 07:25:03;;;;;;;29.02;16.23;;;1.60;99.90;;;;;;5000924;28;20038;-61
2022/03/01 07:27:29;;;;;;;30.10;16.17;;;1.80;99.90;;;;;;4998523;28;20037;-61
2022/03/01 07:29:55;;;;;;;30.65;16.15;;;2.00;99.90;;;;;;4988449;28;20117;-61
2022/03/01 07:32:20;;;;;;;28.35;16.00;;;2.10;99.90;;;;;;4987142;28;20034;-61
2022/03/01 07:34:46;;;;;;;33.15;16.13;;;2.30;99.90;;;;;;5000525;28;20500;-62
2022/03/01 07:37:12;;;;;;;30.17;15.10;;;2.40;99.90;;;;;;5009687;28;20076;-61
2022/03/01 07:39:37;;;;;;;29.77;16.15;;;2.60;99.90;;;;;;4993389;28;20667;-62
2022/03/01 07:42:03;;;;;;;30.75;14.98;;;2.80;99.90;;;;;;5000825;28;20111;-61
2022/03/01 07:44:29;;;;;;;29.58;15.15;;;2.90;99.90;;;;;;4984376;28;20537;-62
2022/03/01 07:46:56;;;;;;;29.45;15.98;;;3.10;99.90;;;;;;4997301;28;20038;-62
2022/03/01 07:49:21;;;;;;;31.10;15.65;;;3.20;99.90;;;;;;5005744;28;20046;-62
2022/03/01 07:51:47;;;;;;;27.40;14.63;;;3.30;99.90;;;;;;5010922;28;20044;-61
2022/03/01 07:54:13;;;;;;;26.52;14.70;;;3.50;99.90;;;;;;4992062;28;20033;-63
2022/03/01 07:56:40;;;;;;;28.23;14.55;;;3.60;99.90;;;;;;4991299;28;20088;-61
2022/03/01 07:59:06;;;;;;;28.00;14.55;;;3.70;99.90;;;;;;5010987;28;20081;-62
2022/03/01 08:01:32;;;;;;;27.40;15.02;;;3.80;99.90;;;;;;4981290;28;20728;-62
2022/03/01 08:03:57;;;;;;;26.70;14.23;;;3.90;99.90;;;;;;4991522;28;20114;-62
2022/03/01 08:06:23;;;;;;;26.00;13.90;;;4.00;99.90;;;;;;5005241;28;20065;-61
2022/03/01 08:08:49;;;;;;;24.25;14.30;;;4.10;99.90;;;;;;4989698;28;20046;-61
2022/03/01 08:11:14;;;;;;;24.95;13.85;;;4.20;99.90;;;;;;4999279;28;20034;-60
2022/03/01 08:13:41;;;;;;;25.40;14.38;;;4.30;99.90;;;;;;5004839;28;20273;-61
2022/03/01 08:16:06;;;;;;;23.65;14.45;;;4.40;99.90;;;;;;5006498;28;20535;-62
2022/03/01 08:18:32;;;;;;;28.05;14.27;;;4.50;99.90;;;;;;4986752;28;20038;-61
2022/03/01 08:20:58;;;;;;;24.85;14.13;;;4.60;99.90;;;;;;5001409;28;20106;-61
2022/03/01 08:23:25;;;;;;;24.10;14.00;;;4.60;99.90;;;;;;4974252;28;20042;-60
2022/03/01 08:25:51;;;;;;;26.40;13.88;;;4.70;99.90;;;;;;4979744;28;20031;-61
2022/03/01 08:28:17;;;;;;;25.30;13.93;;;4.70;99.90;;;;;;4993768;28;20042;-62
2022/03/01 08:30:43;;;;;;;26.17;14.35;;;4.70;99.90;;;;;;5007818;28;20129;-62
2022/03/01 08:33:09;;;;;;;25.52;14.30;;;4.70;99.90;;;;;;5006677;28;20073;-60
2022/03/01 08:35:35;;;;;;;27.13;15.13;;;4.70;99.90;;;;;;4982255;28;20045;-61
2022/03/01 08:38:02;;;;;;;28.25;15.10;;;4.70;99.90;;;;;;5001515;28;20406;-61
2022/03/01 08:40:30;;;;;;;24.92;14.77;;;4.70;99.90;;;;;;5010310;28;20071;-62
2022/03/01 08:42:56;;;;;;;25.00;14.35;;;4.70;99.90;;;;;;4991210;28;20493;-61
2022/03/01 08:45:21;;;;;;;28.50;14.77;;;4.70;99.90;;;;;;4996406;28;20036;-61
2022/03/01 08:47:47;;;;;;;27.27;15.40;;;4.80;99.90;;;;;;5008089;28;20120;-61
2022/03/01 08:50:13;;;;;;;27.25;14.90;;;4.80;99.90;;;;;;4994513;28;20042;-62
2022/03/01 08:52:39;;;;;;;29.98;15.30;;;4.90;99.90;;;;;;4974127;28;20557;-62
2022/03/01 08:55:07;;;;;;;26.10;14.65;;;5.00;99.90;;;;;;5000097;28;20038;-62
2022/03/01 08:57:32;;;;;;;28.83;15.40;;;5.20;99.90;;;;;;4993784;28;20073;-62
2022/03/01 08:59:58;;;;;;;26.10;15.25;;;5.30;99.90;;;;;;4987333;28;20073;-62
2022/03/01 09:02:23;;;;;;;34.67;14.80;;;5.50;99.90;;;;;;4993134;28;20045;-61
2022/03/01 09:04:49;;;;;;;28.77;14.77;;;5.70;99.90;;;;;;4999259;28;20042;-61
2022/03/01 09:07:14;;;;;;;24.67;14.77;;;5.90;99.90;;;;;;4986108;28;20035;-61
2022/03/01 09:09:40;;;;;;;26.83;14.38;;;6.00;99.90;;;;;;5000973;28;20548;-61
2022/03/01 09:12:06;;;;;;;26.60;14.23;;;6.10;99.90;;;;;;5001112;28;20600;-61
2022/03/01 09:14:31;;;;;;;32.58;15.57;;;6.10;99.90;;;;;;4991937;28;20170;-62
2022/03/01 09:16:57;;;;;;;25.27;15.30;;;6.10;99.90;;;;;;4979528;28;20095;-61
2022/03/01 09:19:22;;;;;;;27.23;15.40;;;6.20;99.90;;;;;;4992593;28;20166;-61
2022/03/01 09:21:48;;;;;;;28.42;15.20;;;6.20;99.90;;;;;;4997741;28;20039;-63
2022/03/01 09:24:14;;;;;;;24.40;14.80;;;6.30;99.90;;;;;;4979090;28;20121;-62
2022/03/01 09:26:40;;;;;;;25.35;15.65;;;6.30;99.90;;;;;;4993471;28;20100;-61
2022/03/01 09:29:06;;;;;;;27.55;16.33;;;6.30;99.90;;;;;;5001944;28;20040;-62
2022/03/01 09:31:31;;;;;;;28.38;15.38;;;6.40;99.90;;;;;;5000038;28;20614;-62
2022/03/01 09:33:57;;;;;;;25.25;14.80;;;6.50;99.90;;;;;;4978416;28;20041;-62
2022/03/01 09:36:23;;;;;;;27.83;16.08;;;6.70;99.90;;;;;;4984876;28;20045;-61
2022/03/01 09:38:49;;;;;;;25.90;15.65;;;6.90;99.90;;;;;;5000740;28;20037;-62
2022/03/01 09:41:14;;;;;;;25.63;14.77;;;7.10;99.90;;;;;;4982392;28;20035;-62
2022/03/01 09:43:41;;;;;;;27.00;15.18;;;7.20;99.90;;;;;;4987030;28;20030;-62
2022/03/01 09:46:08;;;;;;;26.98;15.15;;;7.30;99.90;;;;;;5001015;28;20041;-61
2022/03/01 09:48:35;;;;;;;25.85;15.60;;;7.40;99.90;;;;;;4989408;28;20178;-61
2022/03/01 09:51:03;;;;;;;25.38;15.20;;;7.50;99.90;;;;;;4989301;28;20038;-62
2022/03/01 09:53:28;;;;;;;26.45;15.05;;;7.60;99.90;;;;;;4995429;28;20041;-62
2022/03/01 09:55:55;;;;;;;26.17;15.18;;;7.70;99.90;;;;;;4989115;28;20118;-62
2022/03/01 09:58:21;;;;;;;27.58;15.88;;;7.80;99.90;;;;;;4985363;28;20050;-61
2022/03/01 10:00:47;;;;;;;24.40;15.27;;;7.90;99.90;;;;;;4996444;28;20195;-62
2022/03/01 10:03:19;;;;;;;24.65;15.15;;;7.90;99.90;;;;;;5008440;28;20668;-62
2022/03/01 10:05:45;;;;;;;28.02;16.10;;;7.90;99.90;;;;;;4987538;28;20038;-62
2022/03/01 10:08:17;;;;;;;23.95;15.25;;;7.90;99.90;;;;;;5035511;22;20038;-62
2022/03/01 10:10:51;;;;;;;30.25;15.02;;;7.80;99.90;;;;;;4972595;28;20041;-62
2022/03/01 10:13:27;;;;;;;28.58;15.65;;;7.70;99.90;;;;;;4975171;28;20157;-62
2022/03/01 10:16:13;;;;;;;26.35;15.38;;;7.60;99.90;;;;;;4977739;28;20536;-62
2022/03/01 10:18:42;;;;;;;28.85;15.90;;;7.60;99.90;;;;;;4980662;28;20054;-62
2022/03/01 10:21:10;;;;;;;23.95;15.38;;;7.60;99.90;;;;;;4983470;28;20035;-62
2022/03/01 10:23:38;;;;;;;27.20;15.23;;;7.70;99.90;;;;;;4962004;28;20043;-62
2022/03/01 10:26:14;;;;;;;28.08;15.27;;;7.60;99.90;;;;;;4980199;28;20042;-62
2022/03/01 10:28:41;;;;;;;34.50;17.10;;;7.60;99.90;;;;;;4989126;28;20516;-62
2022/03/01 10:31:11;;;;;;;23.92;15.07;;;7.50;99.90;;;;;;4968025;28;20039;-62
2022/03/01 10:33:39;;;;;;;27.23;15.15;;;7.50;99.90;;;;;;4966812;28;20046;-62
2022/03/01 10:36:05;;;;;;;28.33;15.73;;;7.50;99.90;;;;;;4981077;28;20133;-62
2022/03/01 10:38:30;;;;;;;27.75;15.00;;;7.50;99.90;;;;;;4988144;28;20129;-62
2022/03/01 10:41:02;;;;;;;26.38;15.02;;;7.50;99.90;;;;;;4973077;28;20034;-62
2022/03/01 10:43:28;;;;;;;26.08;15.50;;;7.60;99.90;;;;;;4979268;28;20089;-62
2022/03/01 10:45:54;;;;;;;25.30;15.32;;;7.70;99.90;;;;;;4987788;28;20103;-62
2022/03/01 10:48:28;;;;;;;27.15;15.57;;;7.80;99.90;;;;;;4971599;28;20034;-62
2022/03/01 10:51:06;;;;;;;28.52;15.02;;;7.90;99.90;;;;;;4978263;28;20055;-62
2022/03/01 10:53:34;;;;;;;27.00;16.02;;;8.00;99.90;;;;;;4988329;28;20046;-62
2022/03/01 10:56:06;;;;;;;24.88;14.65;;;8.10;99.90;;;;;;4984751;28;20038;-62
2022/03/01 10:58:32;;;;;;;26.58;15.70;;;8.20;99.90;;;;;;4984674;28;20044;-62
2022/03/01 11:00:58;;;;;;;22.90;13.90;;;8.20;99.90;;;;;;4983900;28;20358;-62
2022/03/01 11:03:24;;;;;;;24.50;14.55;;;8.30;99.90;;;;;;4987459;28;20022;-62
2022/03/01 11:05:54;;;;;;;28.85;15.43;;;8.40;99.90;;;;;;4980693;28;20039;-62
2022/03/01 11:08:22;;;;;;;26.67;15.10;;;8.50;99.90;;;;;;4983903;28;20043;-62
2022/03/01 11:10:50;;;;;;;26.45;15.77;;;8.60;99.90;;;;;;4969308;28;20040;-62
2022/03/01 11:13:19;;;;;;;27.77;16.02;;;8.60;99.90;;;;;;4979838;28;20409;-62
2022/03/01 11:16:19;;;;;;;23.90;13.70;;;8.60;99.90;;;;;;4981695;28;20046;-62
2022/03/01 11:19:22;;;;;;;29.05;14.85;;;8.70;99.90;;;;;;4992262;28;20046;-62
2022/03/01 11:21:50;;;;;;;27.63;15.35;;;8.90;99.90;;;;;;4962315;28;20122;-62
2022/03/01 11:24:18;;;;;;;26.52;16.17;;;9.10;99.90;;;;;;4974573;28;20031;-62
2022/03/01 11:26:44;;;;;;;30.50;17.02;;;9.10;99.70;;;;;;4969158;28;20035;-61
2022/03/01 11:29:12;;;;;;;25.75;15.15;;;9.30;99.90;;;;;;4983743;28;20034;-61
2022/03/01 11:31:40;;;;;;;25.15;15.02;;;9.40;99.90;;;;;;4985808;28;20055;-61
2022/03/01 11:34:25;;;;;;;25.17;15.13;;;9.50;99.90;;;;;;4972693;28;20153;-61
2022/03/01 11:36:56;;;;;;;24.73;15.15;;;9.50;99.90;;;;;;4969831;28;20049;-62
2022/03/01 11:39:34;;;;;;;28.73;15.30;;;9.50;99.90;;;;;;4967314;28;20050;-62
2022/03/01 11:42:09;;;;;;;25.90;15.57;;;9.60;99.90;;;;;;4967797;28;20035;-61
2022/03/01 11:44:39;;;;;;;25.33;15.52;;;9.60;99.90;;;;;;4960985;28;20027;-61
2022/03/01 11:47:07;;;;;;;30.40;15.85;;;9.70;99.90;;;;;;4968079;28;20041;-62
2022/03/01 11:49:35;;;;;;;25.73;16.10;;;9.80;99.90;;;;;;4979323;28;20035;-61
2022/03/01 11:52:02;;;;;;;23.60;15.43;;;9.60;99.90;;;;;;4967278;28;20038;-61
2022/03/01 11:54:30;;;;;;;24.58;15.65;;;9.70;99.90;;;;;;4979018;28;20041;-62
2022/03/01 11:56:58;;;;;;;25.75;15.75;;;9.80;99.90;;;;;;4973549;28;20173;-62
2022/03/01 11:59:24;;;;;;;29.33;15.93;;;9.80;99.90;;;;;;4965270;28;20062;-61
2022/03/01 12:01:53;;;;;;;24.63;15.73;;;9.80;99.90;;;;;;4963514;28;20056;-61
2022/03/01 12:04:21;;;;;;;24.35;16.00;;;9.70;99.90;;;;;;4965333;28;20042;-62
2022/03/01 12:06:52;;;;;;;25.73;16.27;;;9.60;99.60;;;;;;4966199;28;20039;-62
2022/03/01 12:09:18;;;;;;;24.80;15.07;;;9.50;99.90;;;;;;4959986;28;20054;-62
2022/03/01 12:11:45;;;;;;;23.25;14.57;;;9.60;99.90;;;;;;4968382;28;20043;-62
2022/03/01 12:14:19;;;;;;;28.65;16.08;;;9.70;99.90;;;;;;4964863;28;20039;-62
2022/03/01 12:16:46;;;;;;;23.85;14.98;;;9.70;99.90;;;;;;4961311;28;20054;-63
2022/03/01 12:19:20;;;;;;;25.85;16.15;;;9.70;99.90;;;;;;4960674;28;20117;-62
2022/03/01 12:22:04;;;;;;;26.52;16.15;;;9.80;99.90;;;;;;4967600;28;20089;-62
2022/03/01 12:24:31;;;;;;;27.67;16.25;;;10.00;99.90;;;;;;4965587;28;20027;-63
2022/03/01 12:27:01;;;;;;;28.50;15.82;;;10.20;99.90;;;;;;4967423;28;20049;-63
2022/03/01 12:29:30;;;;;;;28.50;16.95;;;10.20;99.90;;;;;;4980524;28;20488;-62
2022/03/01 12:31:55;;;;;;;25.23;15.82;;;10.40;99.90;;;;;;4981839;28;20904;-62
2022/03/01 12:34:25;;;;;;;24.83;16.83;;;10.50;99.90;;;;;;4979154;28;20030;-62
2022/03/01 12:36:57;;;;;;;27.23;15.57;;;10.60;99.90;;;;;;4981238;28;20039;-63
2022/03/01 12:39:23;;;;;;;;;;;10.70;99.90;;;;;;4989860;28;20077;-62